sensor_id;sensor_type;location;lat;lon;timestamp;pressure;altitude;pressure_sealevel;temperature;humidity
13732;BME280;6937;56.096;12.664;2023-02-21T00:02:09;100430.84;;;6.66;100.00
13732;BME280;6937;56.096;12.664;2023-02-21T00:04:54;100409.50;;;6.67;100.00
13732;BME280;6937;56.096;12.664;2023-02-21T00:07:38;100392.44;;;6.71;100.00
13732;BME280;6937;56.096;12.664;2023-02-21T00:10:22;100377.34;;;6.72;100.00
13732;BME280;6937;56.096;12.664;2023-02-21T00:13:06;100373.09;;;6.69;100.00
13732;BME280;6937;56.096;12.664;2023-02-21T00:15:50;100373.84;;;6.71;100.00
13732;BME280;6937;56.096;12.664;2023-02-21T00:18:35;100376.03;;;6.79;100.00
13732;BME280;6937;56.096;12.664;2023-02-21T00:21:19;100360.94;;;6.79;100.00
13732;BME280;6937;56.096;12.664;2023-02-21T00:24:03;100325.47;;;6.80;100.00
13732;BME280;6937;56.096;12.664;2023-02-21T00:26:48;100307.75;;;6.81;100.00
13732;BME280;6937;56.096;12.664;2023-02-21T00:29:32;100319.66;;;6.88;100.00
13732;BME280;6937;56.096;12.664;2023-02-21T00:32:16;100281.53;;;6.89;100.00
13732;BME280;6937;56.096;12.664;2023-02-21T00:35:00;100224.63;;;6.93;100.00
13732;BME280;6937;56.096;12.664;2023-02-21T00:37:43;100243.00;;;6.96;100.00
13732;BME280;6937;56.096;12.664;2023-02-21T00:40:27;100241.59;;;6.91;100.00
13732;BME280;6937;56.096;12.664;2023-02-21T00:43:11;100215.50;;;6.97;100.00
13732;BME280;6937;56.096;12.664;2023-02-21T00:45:55;100204.94;;;6.96;100.00
13732;BME280;6937;56.096;12.664;2023-02-21T00:48:39;100170.84;;;6.90;100.00
13732;BME280;6937;56.096;12.664;2023-02-21T00:51:23;100162.03;;;6.89;100.00
13732;BME280;6937;56.096;12.664;2023-02-21T00:54:07;100172.53;;;6.91;100.00
13732;BME280;6937;56.096;12.664;2023-02-21T00:56:51;100167.34;;;6.89;100.00
13732;BME280;6937;56.096;12.664;2023-02-21T00:59:35;100173.59;;;6.88;100.00
13732;BME280;6937;56.096;12.664;2023-02-21T01:02:19;100177.41;;;6.84;100.00
13732;BME280;6937;56.096;12.664;2023-02-21T01:05:04;100171.22;;;6.84;100.00
13732;BME280;6937;56.096;12.664;2023-02-21T01:07:48;100107.16;;;6.75;100.00
13732;BME280;6937;56.096;12.664;2023-02-21T01:10:32;100180.84;;;6.72;100.00
13732;BME280;6937;56.096;12.664;2023-02-21T01:13:16;100202.75;;;6.75;100.00
13732;BME280;6937;56.096;12.664;2023-02-21T01:15:59;100160.47;;;6.72;100.00
13732;BME280;6937;56.096;12.664;2023-02-21T01:18:43;100180.66;;;6.75;100.00
13732;BME280;6937;56.096;12.664;2023-02-21T01:21:27;100174.03;;;6.68;100.00
13732;BME280;6937;56.096;12.664;2023-02-21T01:24:14;100222.97;;;6.64;100.00
13732;BME280;6937;56.096;12.664;2023-02-21T01:26:58;100197.78;;;6.57;100.00
13732;BME280;6937;56.096;12.664;2023-02-21T01:29:42;100206.41;;;6.60;100.00
13732;BME280;6937;56.096;12.664;2023-02-21T01:32:26;100244.34;;;6.62;100.00
13732;BME280;6937;56.096;12.664;2023-02-21T01:35:10;100205.81;;;6.69;100.00
13732;BME280;6937;56.096;12.664;2023-02-21T01:37:54;100214.63;;;6.70;100.00
13732;BME280;6937;56.096;12.664;2023-02-21T01:40:38;100193.47;;;6.68;100.00
13732;BME280;6937;56.096;12.664;2023-02-21T01:43:24;100174.03;;;6.68;100.00
13732;BME280;6937;56.096;12.664;2023-02-21T01:46:14;100167.22;;;6.64;100.00
13732;BME280;6937;56.096;12.664;2023-02-21T01:49:00;100160.75;;;6.68;100.00
13732;BME280;6937;56.096;12.664;2023-02-21T01:51:45;100166.19;;;6.66;100.00
13732;BME280;6937;56.096;12.664;2023-02-21T01:54:33;100176.81;;;6.66;100.00
13732;BME280;6937;56.096;12.664;2023-02-21T01:57:19;100169.22;;;6.60;100.00
13732;BME280;6937;56.096;12.664;2023-02-21T02:00:07;100177.19;;;6.60;100.00
13732;BME280;6937;56.096;12.664;2023-02-21T02:03:04;100141.50;;;6.52;100.00
13732;BME280;6937;56.096;12.664;2023-02-21T02:05:55;100206.81;;;6.54;100.00
13732;BME280;6937;56.096;12.664;2023-02-21T02:08:39;100170.59;;;6.53;100.00
13732;BME280;6937;56.096;12.664;2023-02-21T02:23:33;100186.94;;;6.47;100.00
13732;BME280;6937;56.096;12.664;2023-02-21T02:34:28;100180.34;;;6.53;100.00
13732;BME280;6937;56.096;12.664;2023-02-21T02:37:01;100188.31;;;6.53;100.00
13732;BME280;6937;56.096;12.664;2023-02-21T02:42:32;100185.22;;;6.46;100.00
13732;BME280;6937;56.096;12.664;2023-02-21T02:45:21;100249.97;;;6.44;100.00
13732;BME280;6937;56.096;12.664;2023-02-21T02:47:54;100224.38;;;6.43;100.00
13732;BME280;6937;56.096;12.664;2023-02-21T02:50:21;100221.03;;;6.53;100.00
13732;BME280;6937;56.096;12.664;2023-02-21T02:52:50;100239.16;;;6.47;100.00
13732;BME280;6937;56.096;12.664;2023-02-21T02:57:56;100241.91;;;6.45;100.00
13732;BME280;6937;56.096;12.664;2023-02-21T03:00:22;100252.81;;;6.41;100.00
13732;BME280;6937;56.096;12.664;2023-02-21T03:08:54;100261.94;;;6.37;100.00
13732;BME280;6937;56.096;12.664;2023-02-21T03:11:23;100270.91;;;6.34;100.00
13732;BME280;6937;56.096;12.664;2023-02-21T03:14:25;100273.69;;;6.32;100.00
13732;BME280;6937;56.096;12.664;2023-02-21T03:17:00;100295.56;;;6.36;100.00
13732;BME280;6937;56.096;12.664;2023-02-21T03:19:34;100293.78;;;6.37;100.00
13732;BME280;6937;56.096;12.664;2023-02-21T03:22:07;100284.00;;;6.37;100.00
13732;BME280;6937;56.096;12.664;2023-02-21T03:24:34;100292.44;;;6.29;100.00
13732;BME280;6937;56.096;12.664;2023-02-21T03:27:04;100294.25;;;6.29;100.00
13732;BME280;6937;56.096;12.664;2023-02-21T03:29:31;100307.25;;;6.34;100.00
13732;BME280;6937;56.096;12.664;2023-02-21T03:32:02;100314.16;;;6.36;100.00
13732;BME280;6937;56.096;12.664;2023-02-21T03:34:37;100309.03;;;6.33;100.00
13732;BME280;6937;56.096;12.664;2023-02-21T03:37:04;100322.38;;;6.31;100.00
13732;BME280;6937;56.096;12.664;2023-02-21T03:39:30;100333.88;;;6.32;100.00
13732;BME280;6937;56.096;12.664;2023-02-21T03:41:55;100333.00;;;6.31;100.00
13732;BME280;6937;56.096;12.664;2023-02-21T03:44:20;100352.72;;;6.27;100.00
13732;BME280;6937;56.096;12.664;2023-02-21T03:46:46;100341.03;;;6.30;100.00
13732;BME280;6937;56.096;12.664;2023-02-21T03:49:11;100356.22;;;6.28;100.00
13732;BME280;6937;56.096;12.664;2023-02-21T03:51:36;100378.66;;;6.22;100.00
13732;BME280;6937;56.096;12.664;2023-02-21T03:54:02;100375.84;;;6.25;100.00
13732;BME280;6937;56.096;12.664;2023-02-21T03:56:27;100373.34;;;6.22;100.00
13732;BME280;6937;56.096;12.664;2023-02-21T03:58:52;100399.88;;;6.22;100.00
13732;BME280;6937;56.096;12.664;2023-02-21T04:01:18;100406.91;;;6.23;100.00
13732;BME280;6937;56.096;12.664;2023-02-21T04:03:43;100418.66;;;6.19;100.00
13732;BME280;6937;56.096;12.664;2023-02-21T04:06:09;100425.69;;;6.20;100.00
13732;BME280;6937;56.096;12.664;2023-02-21T04:08:34;100441.34;;;6.25;100.00
13732;BME280;6937;56.096;12.664;2023-02-21T04:10:59;100444.91;;;6.24;100.00
13732;BME280;6937;56.096;12.664;2023-02-21T04:13:25;100443.13;;;6.24;100.00
13732;BME280;6937;56.096;12.664;2023-02-21T04:15:50;100457.06;;;6.28;100.00
13732;BME280;6937;56.096;12.664;2023-02-21T04:18:16;100464.94;;;6.29;100.00
13732;BME280;6937;56.096;12.664;2023-02-21T04:20:41;100456.19;;;6.27;100.00
13732;BME280;6937;56.096;12.664;2023-02-21T04:23:06;100476.56;;;6.27;100.00
13732;BME280;6937;56.096;12.664;2023-02-21T04:25:32;100494.28;;;6.26;100.00
13732;BME280;6937;56.096;12.664;2023-02-21T04:27:57;100503.03;;;6.28;100.00
13732;BME280;6937;56.096;12.664;2023-02-21T04:30:22;100490.63;;;6.29;100.00
13732;BME280;6937;56.096;12.664;2023-02-21T04:32:48;100494.97;;;6.30;100.00
13732;BME280;6937;56.096;12.664;2023-02-21T04:35:14;100509.28;;;6.27;100.00
13732;BME280;6937;56.096;12.664;2023-02-21T04:37:40;100498.59;;;6.29;100.00
13732;BME280;6937;56.096;12.664;2023-02-21T04:40:06;100509.19;;;6.29;100.00
13732;BME280;6937;56.096;12.664;2023-02-21T04:42:32;100548.75;;;6.34;100.00
13732;BME280;6937;56.096;12.664;2023-02-21T04:44:58;100522.09;;;6.35;100.00
13732;BME280;6937;56.096;12.664;2023-02-21T04:47:23;100503.25;;;6.40;100.00
13732;BME280;6937;56.096;12.664;2023-02-21T04:49:48;100513.94;;;6.38;100.00
13732;BME280;6937;56.096;12.664;2023-02-21T04:52:17;100509.59;;;6.37;100.00
13732;BME280;6937;56.096;12.664;2023-02-21T04:54:45;100521.25;;;6.35;100.00
13732;BME280;6937;56.096;12.664;2023-02-21T04:57:11;100521.06;;;6.38;100.00
13732;BME280;6937;56.096;12.664;2023-02-21T04:59:36;100528.09;;;6.39;100.00
13732;BME280;6937;56.096;12.664;2023-02-21T05:02:02;100529.78;;;6.40;100.00
13732;BME280;6937;56.096;12.664;2023-02-21T05:04:27;100517.47;;;6.39;100.00
13732;BME280;6937;56.096;12.664;2023-02-21T05:06:52;100515.19;;;6.32;100.00
13732;BME280;6937;56.096;12.664;2023-02-21T05:09:18;100524.16;;;6.30;100.00
13732;BME280;6937;56.096;12.664;2023-02-21T05:11:43;100527.66;;;6.30;100.00
13732;BME280;6937;56.096;12.664;2023-02-21T05:14:08;100534.78;;;6.30;100.00
13732;BME280;6937;56.096;12.664;2023-02-21T05:16:34;100526.81;;;6.30;100.00
13732;BME280;6937;56.096;12.664;2023-02-21T05:19:00;100537.34;;;6.31;100.00
13732;BME280;6937;56.096;12.664;2023-02-21T05:21:26;100532.13;;;6.30;100.00
13732;BME280;6937;56.096;12.664;2023-02-21T05:23:52;100544.56;;;6.29;100.00
13732;BME280;6937;56.096;12.664;2023-02-21T05:26:22;100551.00;;;6.25;100.00
13732;BME280;6937;56.096;12.664;2023-02-21T05:28:48;100555.19;;;6.29;100.00
13732;BME280;6937;56.096;12.664;2023-02-21T05:31:14;100575.63;;;6.27;100.00
13732;BME280;6937;56.096;12.664;2023-02-21T05:33:39;100567.84;;;6.24;100.00
13732;BME280;6937;56.096;12.664;2023-02-21T05:36:05;100568.09;;;6.20;100.00
13732;BME280;6937;56.096;12.664;2023-02-21T05:38:30;100584.97;;;6.19;100.00
13732;BME280;6937;56.096;12.664;2023-02-21T05:40:56;100592.84;;;6.20;100.00
13732;BME280;6937;56.096;12.664;2023-02-21T05:43:21;100609.69;;;6.19;100.00
13732;BME280;6937;56.096;12.664;2023-02-21T05:45:47;100600.88;;;6.19;100.00
13732;BME280;6937;56.096;12.664;2023-02-21T05:48:12;100616.91;;;6.17;100.00
13732;BME280;6937;56.096;12.664;2023-02-21T05:50:37;100623.06;;;6.18;100.00
13732;BME280;6937;56.096;12.664;2023-02-21T05:53:04;100608.94;;;6.17;100.00
13732;BME280;6937;56.096;12.664;2023-02-21T05:55:29;100614.56;;;6.11;100.00
13732;BME280;6937;56.096;12.664;2023-02-21T05:57:55;100651.16;;;6.22;100.00
13732;BME280;6937;56.096;12.664;2023-02-21T06:00:24;100645.06;;;6.20;100.00
13732;BME280;6937;56.096;12.664;2023-02-21T06:02:50;100652.25;;;6.18;100.00
13732;BME280;6937;56.096;12.664;2023-02-21T06:05:17;100665.59;;;6.16;100.00
13732;BME280;6937;56.096;12.664;2023-02-21T06:07:42;100681.50;;;6.16;100.00
13732;BME280;6937;56.096;12.664;2023-02-21T06:10:08;100691.94;;;6.19;100.00
13732;BME280;6937;56.096;12.664;2023-02-21T06:12:33;100701.72;;;6.19;100.00
13732;BME280;6937;56.096;12.664;2023-02-21T06:14:59;100722.09;;;6.18;100.00
13732;BME280;6937;56.096;12.664;2023-02-21T06:17:24;100719.59;;;6.15;100.00
13732;BME280;6937;56.096;12.664;2023-02-21T06:19:49;100724.16;;;6.13;100.00
13732;BME280;6937;56.096;12.664;2023-02-21T06:22:15;100736.72;;;6.10;100.00
13732;BME280;6937;56.096;12.664;2023-02-21T06:24:42;100751.72;;;6.11;100.00
13732;BME280;6937;56.096;12.664;2023-02-21T06:27:07;100757.09;;;6.09;100.00
13732;BME280;6937;56.096;12.664;2023-02-21T06:29:32;100754.59;;;6.06;100.00
13732;BME280;6937;56.096;12.664;2023-02-21T06:31:59;100765.22;;;6.06;100.00
13732;BME280;6937;56.096;12.664;2023-02-21T06:34:24;100779.41;;;6.05;100.00
13732;BME280;6937;56.096;12.664;2023-02-21T06:36:51;100793.53;;;6.06;100.00
13732;BME280;6937;56.096;12.664;2023-02-21T06:39:17;100796.19;;;6.06;100.00
13732;BME280;6937;56.096;12.664;2023-02-21T06:41:42;100800.63;;;6.05;100.00
13732;BME280;6937;56.096;12.664;2023-02-21T06:44:08;100810.38;;;6.05;100.00
13732;BME280;6937;56.096;12.664;2023-02-21T06:46:33;100836.75;;;6.08;100.00
13732;BME280;6937;56.096;12.664;2023-02-21T06:49:01;100801.66;;;6.03;100.00
13732;BME280;6937;56.096;12.664;2023-02-21T06:51:26;100829.59;;;6.10;100.00
13732;BME280;6937;56.096;12.664;2023-02-21T06:53:56;100835.75;;;6.10;100.00
13732;BME280;6937;56.096;12.664;2023-02-21T06:56:22;100830.28;;;6.13;100.00
13732;BME280;6937;56.096;12.664;2023-02-21T06:58:48;100841.66;;;6.15;100.00
13732;BME280;6937;56.096;12.664;2023-02-21T07:01:13;100847.81;;;6.16;100.00
13732;BME280;6937;56.096;12.664;2023-02-21T07:03:39;100834.47;;;6.17;100.00
13732;BME280;6937;56.096;12.664;2023-02-21T07:06:07;100850.47;;;6.16;100.00
13732;BME280;6937;56.096;12.664;2023-02-21T07:08:32;100859.28;;;6.16;100.00
13732;BME280;6937;56.096;12.664;2023-02-21T07:10:58;100855.53;;;6.20;100.00
13732;BME280;6937;56.096;12.664;2023-02-21T07:13:23;100871.41;;;6.22;100.00
13732;BME280;6937;56.096;12.664;2023-02-21T07:15:48;100877.41;;;6.25;100.00
13732;BME280;6937;56.096;12.664;2023-02-21T07:18:14;100865.91;;;6.25;100.00
13732;BME280;6937;56.096;12.664;2023-02-21T07:20:39;100886.81;;;6.31;100.00
13732;BME280;6937;56.096;12.664;2023-02-21T07:23:04;100895.56;;;6.33;100.00
13732;BME280;6937;56.096;12.664;2023-02-21T07:25:30;100888.38;;;6.35;100.00
13732;BME280;6937;56.096;12.664;2023-02-21T07:27:55;100898.13;;;6.35;100.00
13732;BME280;6937;56.096;12.664;2023-02-21T07:30:20;100909.72;;;6.34;100.00
13732;BME280;6937;56.096;12.664;2023-02-21T07:32:46;100922.97;;;6.34;100.00
13732;BME280;6937;56.096;12.664;2023-02-21T07:35:12;100926.56;;;6.32;100.00
13732;BME280;6937;56.096;12.664;2023-02-21T07:37:38;100927.25;;;6.36;100.00
13732;BME280;6937;56.096;12.664;2023-02-21T07:40:04;100944.06;;;6.37;100.00
13732;BME280;6937;56.096;12.664;2023-02-21T07:42:31;100960.75;;;6.39;100.00
13732;BME280;6937;56.096;12.664;2023-02-21T07:44:57;100961.53;;;6.41;100.00
13732;BME280;6937;56.096;12.664;2023-02-21T07:47:26;100969.56;;;6.39;100.00
13732;BME280;6937;56.096;12.664;2023-02-21T07:49:52;100976.44;;;6.43;100.00
13732;BME280;6937;56.096;12.664;2023-02-21T07:52:19;100979.03;;;6.45;100.00
13732;BME280;6937;56.096;12.664;2023-02-21T07:54:45;100990.47;;;6.45;100.00
13732;BME280;6937;56.096;12.664;2023-02-21T07:57:10;100997.59;;;6.45;100.00
13732;BME280;6937;56.096;12.664;2023-02-21T07:59:35;101009.00;;;6.47;100.00
13732;BME280;6937;56.096;12.664;2023-02-21T08:02:01;101016.91;;;6.48;100.00
13732;BME280;6937;56.096;12.664;2023-02-21T08:04:26;101016.09;;;6.46;100.00
13732;BME280;6937;56.096;12.664;2023-02-21T08:06:57;101012.41;;;6.49;100.00
13732;BME280;6937;56.096;12.664;2023-02-21T08:09:23;101024.84;;;6.48;100.00
13732;BME280;6937;56.096;12.664;2023-02-21T08:11:48;101038.91;;;6.50;100.00
13732;BME280;6937;56.096;12.664;2023-02-21T08:14:13;101046.63;;;6.55;100.00
13732;BME280;6937;56.096;12.664;2023-02-21T08:16:39;101051.00;;;6.56;100.00
13732;BME280;6937;56.096;12.664;2023-02-21T08:19:04;101073.88;;;6.58;100.00
13732;BME280;6937;56.096;12.664;2023-02-21T08:21:29;101062.19;;;6.62;100.00
13732;BME280;6937;56.096;12.664;2023-02-21T08:23:55;101067.50;;;6.62;100.00
13732;BME280;6937;56.096;12.664;2023-02-21T08:26:21;101079.84;;;6.63;100.00
13732;BME280;6937;56.096;12.664;2023-02-21T08:28:47;101084.34;;;6.61;100.00
13732;BME280;6937;56.096;12.664;2023-02-21T08:31:12;101083.47;;;6.61;100.00
13732;BME280;6937;56.096;12.664;2023-02-21T08:33:37;101097.47;;;6.64;100.00
13732;BME280;6937;56.096;12.664;2023-02-21T08:36:03;101094.09;;;6.61;100.00
13732;BME280;6937;56.096;12.664;2023-02-21T08:38:29;101085.22;;;6.62;100.00
13732;BME280;6937;56.096;12.664;2023-02-21T08:40:54;101076.38;;;6.61;100.00
13732;BME280;6937;56.096;12.664;2023-02-21T08:43:20;101118.66;;;6.66;100.00
13732;BME280;6937;56.096;12.664;2023-02-21T08:45:45;101108.09;;;6.64;100.00
13732;BME280;6937;56.096;12.664;2023-02-21T08:48:11;101123.56;;;6.73;100.00
13732;BME280;6937;56.096;12.664;2023-02-21T08:50:37;101117.22;;;6.76;100.00
13732;BME280;6937;56.096;12.664;2023-02-21T08:53:02;101109.25;;;6.76;100.00
13732;BME280;6937;56.096;12.664;2023-02-21T08:55:27;101128.50;;;6.81;100.00
13732;BME280;6937;56.096;12.664;2023-02-21T08:57:53;101116.78;;;6.85;100.00
13732;BME280;6937;56.096;12.664;2023-02-21T09:00:20;101116.63;;;6.88;100.00
13732;BME280;6937;56.096;12.664;2023-02-21T09:02:53;101118.41;;;6.88;100.00
13732;BME280;6937;56.096;12.664;2023-02-21T09:05:22;101118.34;;;6.89;100.00
13732;BME280;6937;56.096;12.664;2023-02-21T09:07:54;101097.84;;;6.91;100.00
13732;BME280;6937;56.096;12.664;2023-02-21T09:10:31;101101.38;;;6.92;100.00
13732;BME280;6937;56.096;12.664;2023-02-21T09:13:00;101108.25;;;6.96;100.00
13732;BME280;6937;56.096;12.664;2023-02-21T09:15:25;101086.19;;;6.94;100.00
13732;BME280;6937;56.096;12.664;2023-02-21T09:17:51;101102.00;;;6.97;100.00
13732;BME280;6937;56.096;12.664;2023-02-21T09:20:21;101104.41;;;7.01;100.00
13732;BME280;6937;56.096;12.664;2023-02-21T09:22:46;101095.59;;;7.01;100.00
13732;BME280;6937;56.096;12.664;2023-02-21T09:25:14;101075.91;;;7.05;100.00
13732;BME280;6937;56.096;12.664;2023-02-21T09:27:40;101081.72;;;7.11;100.00
13732;BME280;6937;56.096;12.664;2023-02-21T09:30:15;101071.09;;;7.11;100.00
13732;BME280;6937;56.096;12.664;2023-02-21T09:32:41;101074.53;;;7.13;100.00
13732;BME280;6937;56.096;12.664;2023-02-21T09:35:08;101062.97;;;7.14;100.00
13732;BME280;6937;56.096;12.664;2023-02-21T09:37:37;101064.09;;;7.26;100.00
13732;BME280;6937;56.096;12.664;2023-02-21T09:40:03;101068.16;;;7.33;100.00
13732;BME280;6937;56.096;12.664;2023-02-21T09:42:31;101058.28;;;7.35;100.00
13732;BME280;6937;56.096;12.664;2023-02-21T09:44:57;101029.81;;;7.37;100.00
13732;BME280;6937;56.096;12.664;2023-02-21T09:47:29;101016.00;;;7.31;100.00
13732;BME280;6937;56.096;12.664;2023-02-21T09:50:03;101023.63;;;7.37;100.00
13732;BME280;6937;56.096;12.664;2023-02-21T09:52:36;100998.94;;;7.35;100.00
13732;BME280;6937;56.096;12.664;2023-02-21T09:57:43;101001.50;;;7.36;100.00
13732;BME280;6937;56.096;12.664;2023-02-21T10:00:21;100998.59;;;7.41;100.00
13732;BME280;6937;56.096;12.664;2023-02-21T10:05:59;101006.41;;;7.44;100.00
13732;BME280;6937;56.096;12.664;2023-02-21T10:16:34;101001.00;;;7.45;100.00
13732;BME280;6937;56.096;12.664;2023-02-21T10:19:15;100987.03;;;7.42;100.00
13732;BME280;6937;56.096;12.664;2023-02-21T10:21:47;101009.84;;;7.46;100.00
13732;BME280;6937;56.096;12.664;2023-02-21T10:24:20;101015.50;;;7.55;100.00
13732;BME280;6937;56.096;12.664;2023-02-21T10:26:57;101007.59;;;7.54;100.00
13732;BME280;6937;56.096;12.664;2023-02-21T10:29:29;101011.13;;;7.54;100.00
13732;BME280;6937;56.096;12.664;2023-02-21T10:32:00;101015.56;;;7.54;100.00
13732;BME280;6937;56.096;12.664;2023-02-21T10:34:29;101019.44;;;7.48;100.00
13732;BME280;6937;56.096;12.664;2023-02-21T10:36:58;101019.44;;;7.48;100.00
13732;BME280;6937;56.096;12.664;2023-02-21T10:39:42;101032.91;;;7.45;100.00
13732;BME280;6937;56.096;12.664;2023-02-21T10:42:12;101029.22;;;7.48;100.00
13732;BME280;6937;56.096;12.664;2023-02-21T10:44:40;101040.47;;;7.53;100.00
13732;BME280;6937;56.096;12.664;2023-02-21T10:47:19;101044.34;;;7.63;100.00
13732;BME280;6937;56.096;12.664;2023-02-21T10:50:03;101037.91;;;7.67;100.00
13732;BME280;6937;56.096;12.664;2023-02-21T10:52:36;101039.00;;;7.63;100.00
13732;BME280;6937;56.096;12.664;2023-02-21T10:55:02;101049.66;;;7.63;100.00
13732;BME280;6937;56.096;12.664;2023-02-21T10:57:31;101051.19;;;7.67;100.00
13732;BME280;6937;56.096;12.664;2023-02-21T10:59:58;101049.47;;;7.66;100.00
13732;BME280;6937;56.096;12.664;2023-02-21T11:02:34;101046.63;;;7.69;100.00
13732;BME280;6937;56.096;12.664;2023-02-21T11:07:35;101057.03;;;7.73;100.00
13732;BME280;6937;56.096;12.664;2023-02-21T11:10:01;101061.78;;;7.68;100.00
13732;BME280;6937;56.096;12.664;2023-02-21T11:12:28;101037.81;;;7.68;100.00
13732;BME280;6937;56.096;12.664;2023-02-21T11:17:29;101054.34;;;7.58;100.00
13732;BME280;6937;56.096;12.664;2023-02-21T11:27:31;101055.41;;;7.71;100.00
13732;BME280;6937;56.096;12.664;2023-02-21T11:29:58;101061.47;;;7.73;100.00
13732;BME280;6937;56.096;12.664;2023-02-21T11:32:30;101068.09;;;7.82;100.00
13732;BME280;6937;56.096;12.664;2023-02-21T11:35:02;101065.19;;;7.86;100.00
13732;BME280;6937;56.096;12.664;2023-02-21T11:37:28;101060.56;;;7.90;100.00
13732;BME280;6937;56.096;12.664;2023-02-21T11:39:56;101049.56;;;7.80;100.00
13732;BME280;6937;56.096;12.664;2023-02-21T11:42:29;101047.50;;;7.69;100.00
13732;BME280;6937;56.096;12.664;2023-02-21T11:47:53;101048.63;;;7.81;100.00
13732;BME280;6937;56.096;12.664;2023-02-21T11:50:27;101060.88;;;7.84;100.00
13732;BME280;6937;56.096;12.664;2023-02-21T11:53:12;101057.97;;;7.88;100.00
13732;BME280;6937;56.096;12.664;2023-02-21T11:55:41;101061.41;;;7.90;100.00
13732;BME280;6937;56.096;12.664;2023-02-21T11:58:23;101056.78;;;7.94;100.00
13732;BME280;6937;56.096;12.664;2023-02-21T12:00:58;101037.28;;;7.77;100.00
13732;BME280;6937;56.096;12.664;2023-02-21T12:09:11;101046.22;;;7.76;100.00
13732;BME280;6937;56.096;12.664;2023-02-21T12:11:47;101048.88;;;7.76;100.00
13732;BME280;6937;56.096;12.664;2023-02-21T12:16:57;101030.84;;;7.82;100.00
13732;BME280;6937;56.096;12.664;2023-02-21T12:19:37;101045.44;;;7.90;100.00
13732;BME280;6937;56.096;12.664;2023-02-21T12:22:34;101038.56;;;8.02;100.00
13732;BME280;6937;56.096;12.664;2023-02-21T12:25:21;101043.16;;;8.14;100.00
13732;BME280;6937;56.096;12.664;2023-02-21T12:27:57;101055.97;;;8.23;100.00
13732;BME280;6937;56.096;12.664;2023-02-21T12:30:33;101026.41;;;8.27;100.00
13732;BME280;6937;56.096;12.664;2023-02-21T12:36:05;101006.78;;;8.44;100.00
13732;BME280;6937;56.096;12.664;2023-02-21T12:44:16;100998.44;;;8.50;100.00
13732;BME280;6937;56.096;12.664;2023-02-21T12:47:06;100984.81;;;8.55;100.00
13732;BME280;6937;56.096;12.664;2023-02-21T12:52:22;100975.53;;;8.62;100.00
13732;BME280;6937;56.096;12.664;2023-02-21T12:57:32;100982.22;;;8.69;100.00
13732;BME280;6937;56.096;12.664;2023-02-21T13:00:13;100983.81;;;8.71;100.00
13732;BME280;6937;56.096;12.664;2023-02-21T13:05:47;100992.69;;;8.86;100.00
13732;BME280;6937;56.096;12.664;2023-02-21T13:11:17;100968.78;;;8.70;100.00
13732;BME280;6937;56.096;12.664;2023-02-21T13:13:44;100965.44;;;8.67;100.00
13732;BME280;6937;56.096;12.664;2023-02-21T13:16:11;100961.66;;;8.71;100.00
13732;BME280;6937;56.096;12.664;2023-02-21T13:18:45;100960.97;;;8.82;100.00
13732;BME280;6937;56.096;12.664;2023-02-21T13:24:26;100970.69;;;9.11;100.00
13732;BME280;6937;56.096;12.664;2023-02-21T13:27:18;100967.53;;;9.18;100.00
13732;BME280;6937;56.096;12.664;2023-02-21T13:29:47;100948.97;;;9.17;100.00
13732;BME280;6937;56.096;12.664;2023-02-21T13:32:17;100944.66;;;9.29;100.00
13732;BME280;6937;56.096;12.664;2023-02-21T13:34:59;100951.59;;;9.31;100.00
13732;BME280;6937;56.096;12.664;2023-02-21T13:37:27;100935.72;;;9.30;100.00
13732;BME280;6937;56.096;12.664;2023-02-21T13:39:56;100936.69;;;9.55;100.00
13732;BME280;6937;56.096;12.664;2023-02-21T13:42:28;100911.56;;;9.72;100.00
13732;BME280;6937;56.096;12.664;2023-02-21T13:55:38;100759.72;;;12.52;100.00
13732;BME280;6937;56.096;12.664;2023-02-21T14:11:09;100824.84;;;13.63;100.00
13732;BME280;6937;56.096;12.664;2023-02-21T14:16:16;100838.69;;;12.93;100.00
13732;BME280;6937;56.096;12.664;2023-02-21T14:18:58;100877.56;;;12.98;100.00
13732;BME280;6937;56.096;12.664;2023-02-21T14:21:35;100905.72;;;13.37;100.00
13732;BME280;6937;56.096;12.664;2023-02-21T14:24:05;100891.50;;;13.15;100.00
13732;BME280;6937;56.096;12.664;2023-02-21T14:27:00;100894.28;;;13.13;100.00
13732;BME280;6937;56.096;12.664;2023-02-21T14:29:31;100882.22;;;12.74;100.00
13732;BME280;6937;56.096;12.664;2023-02-21T14:34:49;100946.00;;;13.04;100.00
13732;BME280;6937;56.096;12.664;2023-02-21T14:39:48;100936.34;;;13.01;100.00
13732;BME280;6937;56.096;12.664;2023-02-21T14:53:26;100952.22;;;12.01;100.00
13732;BME280;6937;56.096;12.664;2023-02-21T15:03:29;100965.34;;;11.93;100.00
13732;BME280;6937;56.096;12.664;2023-02-21T15:06:16;100976.97;;;11.81;100.00
13732;BME280;6937;56.096;12.664;2023-02-21T15:08:48;100984.31;;;11.54;100.00
13732;BME280;6937;56.096;12.664;2023-02-21T15:13:45;101019.53;;;11.60;100.00
13732;BME280;6937;56.096;12.664;2023-02-21T15:16:13;101018.03;;;11.56;100.00
13732;BME280;6937;56.096;12.664;2023-02-21T15:19:00;101015.00;;;11.12;100.00
13732;BME280;6937;56.096;12.664;2023-02-21T15:21:26;101014.59;;;10.93;100.00
13732;BME280;6937;56.096;12.664;2023-02-21T15:24:14;101017.47;;;10.90;100.00
13732;BME280;6937;56.096;12.664;2023-02-21T15:26:40;101034.28;;;10.79;100.00
13732;BME280;6937;56.096;12.664;2023-02-21T15:31:53;101050.47;;;10.51;100.00
13732;BME280;6937;56.096;12.664;2023-02-21T15:34:30;101048.28;;;10.31;100.00
13732;BME280;6937;56.096;12.664;2023-02-21T15:37:12;101043.66;;;10.06;100.00
13732;BME280;6937;56.096;12.664;2023-02-21T15:39:42;101054.34;;;9.65;100.00
13732;BME280;6937;56.096;12.664;2023-02-21T15:42:10;101061.72;;;9.47;100.00